Time;durP1;ratioP1;P1;durP2;ratioP2;P2;SDS_P1;SDS_P2;PMS_P1;PMS_P2;Temp;Humidity;BMP_temperature;BMP_pressure;BME280_temperature;BME280_humidity;BME280_pressure;Samples;Min_cycle;Max_cycle;Signal;HPM_P1;HPM_P2
2022/04/22 00:01:47;;;;;;;10.75;5.82;;;17.40;57.20;;;;;;3899430;30;20517;-70
2022/04/22 00:04:09;;;;;;;9.35;5.85;;;17.40;57.10;;;;;;3912627;30;20080;-70
2022/04/22 00:06:31;;;;;;;10.15;5.88;;;17.40;57.10;;;;;;3913058;30;20545;-69
2022/04/22 00:08:53;;;;;;;10.23;5.55;;;17.40;57.10;;;;;;3899025;30;20144;-67
2022/04/22 00:11:30;;;;;;;8.70;5.68;;;17.40;57.10;;;;;;3886655;30;20142;-68
2022/04/22 00:13:54;;;;;;;8.55;4.95;;;17.40;57.10;;;;;;3912482;30;20058;-67
2022/04/22 00:16:17;;;;;;;6.32;5.50;;;17.40;57.10;;;;;;3912507;30;20571;-68
2022/04/22 00:18:41;;;;;;;9.07;5.80;;;17.40;56.90;;;;;;3912629;30;20048;-68
2022/04/22 00:21:03;;;;;;;12.18;6.40;;;17.40;56.80;;;;;;3898224;30;20390;-70
2022/04/22 00:23:26;;;;;;;10.05;5.63;;;17.40;56.90;;;;;;3885039;30;20064;-69
2022/04/22 00:25:48;;;;;;;9.07;6.28;;;17.30;56.90;;;;;;3898014;30;20494;-70
2022/04/22 00:28:10;;;;;;;10.45;5.57;;;17.30;56.90;;;;;;3897740;30;20502;-70
2022/04/22 00:30:32;;;;;;;9.07;5.10;;;17.30;57.00;;;;;;3909946;30;20063;-68
2022/04/22 00:32:54;;;;;;;11.43;6.05;;;17.30;57.00;;;;;;3912392;30;20086;-70
2022/04/22 00:35:18;;;;;;;8.63;5.50;;;17.30;57.10;;;;;;3912115;30;20115;-70
2022/04/22 00:37:42;;;;;;;13.88;6.40;;;17.30;57.00;;;;;;3911793;30;20063;-69
2022/04/22 00:40:05;;;;;;;12.13;6.75;;;17.20;57.10;;;;;;3912310;30;20126;-70
2022/04/22 00:42:28;;;;;;;9.68;5.93;;;17.20;57.10;;;;;;3911476;30;20049;-70
2022/04/22 00:44:50;;;;;;;11.57;6.13;;;17.20;57.10;;;;;;3912339;30;20052;-70
2022/04/22 00:47:12;;;;;;;10.18;5.60;;;17.20;57.10;;;;;;3912682;30;20059;-71
2022/04/22 00:49:34;;;;;;;10.63;5.55;;;17.20;57.00;;;;;;3911652;30;20060;-71
2022/04/22 00:51:58;;;;;;;9.15;5.75;;;17.20;56.90;;;;;;3911615;30;20421;-71
2022/04/22 00:54:20;;;;;;;8.82;5.43;;;17.20;56.80;;;;;;3911593;30;20070;-71
2022/04/22 00:56:42;;;;;;;8.60;5.20;;;17.20;56.90;;;;;;3911981;30;20148;-71
2022/04/22 00:59:04;;;;;;;12.20;6.35;;;17.20;56.80;;;;;;3914257;30;20155;-70
2022/04/22 01:01:26;;;;;;;7.82;4.75;;;17.20;56.70;;;;;;3914498;30;20182;-71
2022/04/22 01:11:44;;;;;;;9.45;4.90;;;17.10;56.80;;;;;;3899231;30;20052;-68
2022/04/22 01:14:08;;;;;;;8.60;5.53;;;17.10;56.50;;;;;;3912693;30;20076;-68
2022/04/22 01:16:30;;;;;;;5.47;4.80;;;17.10;56.60;;;;;;3914266;30;20064;-68
2022/04/22 01:18:53;;;;;;;8.77;5.25;;;17.10;56.50;;;;;;3914264;30;20211;-68
2022/04/22 01:21:16;;;;;;;10.63;5.35;;;17.10;56.70;;;;;;3914843;30;20063;-68
2022/04/22 01:23:38;;;;;;;9.20;5.38;;;17.10;56.50;;;;;;3901135;30;20098;-68
2022/04/22 01:26:00;;;;;;;8.20;4.88;;;17.10;56.40;;;;;;3914607;30;20060;-68
2022/04/22 01:28:23;;;;;;;7.40;5.38;;;17.10;56.50;;;;;;3914626;30;20510;-68
2022/04/22 01:30:45;;;;;;;8.70;4.18;;;17.10;56.00;;;;;;3901024;30;20122;-68
2022/04/22 01:33:08;;;;;;;8.63;5.20;;;17.10;56.00;;;;;;3914521;30;20726;-68
2022/04/22 01:35:30;;;;;;;7.07;4.60;;;17.00;55.90;;;;;;3914705;30;20134;-71
2022/04/22 01:37:53;;;;;;;9.20;4.53;;;17.00;56.00;;;;;;3901205;30;20060;-71
2022/04/22 01:40:16;;;;;;;11.85;4.85;;;17.00;56.00;;;;;;3913845;30;20157;-71
2022/04/22 01:42:38;;;;;;;10.02;4.80;;;17.00;56.10;;;;;;3914376;30;20237;-71
2022/04/22 01:45:00;;;;;;;7.47;5.00;;;16.90;55.90;;;;;;3914590;30;20122;-69
2022/04/22 01:47:22;;;;;;;7.82;5.00;;;16.90;56.20;;;;;;3914781;30;20062;-69
2022/04/22 01:49:44;;;;;;;6.50;5.05;;;16.90;56.10;;;;;;3914330;30;20076;-68
2022/04/22 01:52:08;;;;;;;6.03;4.70;;;16.90;56.00;;;;;;3913858;30;20151;-68
2022/04/22 01:54:31;;;;;;;6.55;4.82;;;16.90;55.90;;;;;;3914269;30;20048;-68
2022/04/22 01:56:53;;;;;;;7.00;4.68;;;16.90;55.80;;;;;;3914213;30;20130;-68
2022/04/22 01:59:16;;;;;;;5.47;4.47;;;16.90;55.70;;;;;;3914170;30;20410;-68
2022/04/22 02:01:38;;;;;;;12.02;5.35;;;16.80;55.70;;;;;;3914158;30;20057;-68
2022/04/22 02:04:00;;;;;;;11.07;5.15;;;16.80;55.70;;;;;;3900168;30;20064;-67
2022/04/22 02:06:22;;;;;;;6.68;4.30;;;16.80;55.50;;;;;;3913696;30;20068;-68
2022/04/22 02:08:44;;;;;;;7.10;5.18;;;16.80;55.50;;;;;;3913912;30;20062;-67
2022/04/22 02:11:07;;;;;;;6.78;4.32;;;16.70;55.50;;;;;;3913836;30;20105;-68
2022/04/22 02:13:29;;;;;;;5.20;4.50;;;16.70;55.90;;;;;;3913833;30;20052;-67
2022/04/22 02:15:51;;;;;;;6.85;4.60;;;16.70;55.70;;;;;;3914130;30;20079;-67
2022/04/22 02:18:14;;;;;;;6.70;4.60;;;16.70;55.50;;;;;;3913915;30;20060;-67
2022/04/22 02:20:36;;;;;;;10.05;5.03;;;16.70;55.60;;;;;;3900715;30;20053;-68
2022/04/22 02:22:58;;;;;;;7.38;4.78;;;16.60;55.60;;;;;;3913749;30;20055;-67
2022/04/22 02:25:20;;;;;;;7.68;4.28;;;16.60;55.60;;;;;;3913442;30;20060;-67
2022/04/22 02:30:32;;;;;;;6.13;3.80;;;16.60;55.50;;;;;;3862250;30;20064;-67
2022/04/22 02:32:54;;;;;;;8.35;4.40;;;16.60;55.60;;;;;;3899401;30;20049;-67
2022/04/22 02:35:16;;;;;;;6.38;4.60;;;16.60;55.60;;;;;;3885905;30;20095;-66
2022/04/22 02:37:38;;;;;;;6.60;4.60;;;16.60;55.60;;;;;;3899280;30;20064;-67
2022/04/22 02:40:00;;;;;;;7.28;4.55;;;16.60;55.70;;;;;;3899045;30;20727;-67
2022/04/22 02:47:43;;;;;;;7.53;4.65;;;16.50;55.90;;;;;;3912704;30;20151;-66
2022/04/22 02:50:07;;;;;;;10.50;4.57;;;16.50;55.90;;;;;;3913820;30;20107;-66
2022/04/22 02:52:29;;;;;;;6.82;3.92;;;16.40;56.10;;;;;;3913882;30;20420;-66
2022/04/22 02:54:51;;;;;;;5.72;3.92;;;16.40;56.00;;;;;;3913083;30;20102;-66
2022/04/22 02:57:13;;;;;;;5.97;4.30;;;16.40;55.90;;;;;;3912795;30;20048;-66
2022/04/22 02:59:38;;;;;;;7.13;3.70;;;16.40;56.10;;;;;;3899508;30;20130;-67
2022/04/22 03:02:01;;;;;;;6.05;4.32;;;16.40;56.20;;;;;;3912891;30;20053;-70
2022/04/22 03:04:24;;;;;;;5.13;4.63;;;16.40;56.10;;;;;;3899877;30;20061;-71
2022/04/22 03:06:46;;;;;;;4.95;4.43;;;16.40;56.00;;;;;;3899721;30;20107;-71
2022/04/22 03:09:08;;;;;;;10.88;4.55;;;16.40;56.20;;;;;;3912445;30;20053;-71
2022/04/22 03:11:30;;;;;;;7.63;4.60;;;16.40;56.20;;;;;;3913267;30;20136;-71
2022/04/22 03:13:52;;;;;;;6.20;4.13;;;16.30;56.10;;;;;;3913477;30;20068;-70
2022/04/22 03:16:14;;;;;;;5.18;4.60;;;16.30;56.20;;;;;;3911888;30;20064;-71
2022/04/22 03:18:38;;;;;;;5.00;4.00;;;16.30;56.20;;;;;;3913100;30;20072;-71
2022/04/22 03:21:03;;;;;;;6.10;4.25;;;16.30;56.40;;;;;;3912550;30;20060;-67
2022/04/22 03:23:24;;;;;;;6.50;4.40;;;16.30;56.40;;;;;;3899249;30;20426;-67
2022/04/22 03:25:47;;;;;;;7.47;4.38;;;16.30;56.20;;;;;;3899487;30;20068;-67
2022/04/22 03:28:09;;;;;;;8.38;4.45;;;16.30;56.10;;;;;;3912574;30;20417;-67
2022/04/22 03:30:34;;;;;;;5.35;4.00;;;16.30;56.10;;;;;;3912546;30;20054;-67
2022/04/22 03:32:56;;;;;;;6.32;4.25;;;16.30;56.20;;;;;;3912213;30;20136;-68
2022/04/22 03:35:20;;;;;;;5.55;4.70;;;16.20;56.20;;;;;;3913011;30;20394;-67
2022/04/22 03:37:42;;;;;;;9.15;4.68;;;16.30;56.20;;;;;;3913047;30;20726;-67
2022/04/22 03:40:06;;;;;;;7.40;4.53;;;16.20;56.00;;;;;;3912529;30;20509;-67
2022/04/22 03:42:29;;;;;;;8.05;4.30;;;16.20;56.00;;;;;;3899526;30;20076;-67
2022/04/22 03:44:51;;;;;;;5.88;3.70;;;16.20;56.70;;;;;;3912776;30;20057;-68
2022/04/22 03:47:13;;;;;;;9.48;4.18;;;16.20;56.20;;;;;;3912135;30;20063;-68
2022/04/22 03:49:35;;;;;;;6.65;4.45;;;16.20;56.20;;;;;;3912393;30;20131;-71
2022/04/22 03:51:58;;;;;;;5.13;3.65;;;16.20;56.00;;;;;;3912454;30;20103;-70
2022/04/22 03:54:23;;;;;;;6.57;3.95;;;16.20;55.90;;;;;;3912360;30;20060;-70
2022/04/22 03:59:24;;;;;;;7.78;4.30;;;16.20;56.10;;;;;;3897962;30;20414;-70
2022/04/22 04:01:46;;;;;;;5.63;3.83;;;16.10;55.90;;;;;;3898202;30;20048;-70
2022/04/22 04:04:08;;;;;;;4.05;3.55;;;16.10;56.10;;;;;;3885119;30;20060;-70
2022/04/22 04:06:30;;;;;;;6.45;3.53;;;16.10;56.20;;;;;;3885024;30;20507;-70
2022/04/22 04:16:48;;;;;;;4.57;3.20;;;16.20;56.00;;;;;;3912258;30;20090;-70
2022/04/22 04:24:30;;;;;;;4.72;3.80;;;16.10;55.80;;;;;;3911947;30;20056;-71
2022/04/22 04:26:53;;;;;;;5.53;3.45;;;16.20;55.70;;;;;;3911987;30;20152;-70
2022/04/22 04:29:16;;;;;;;5.68;3.50;;;16.10;55.60;;;;;;3912336;30;20482;-69
2022/04/22 04:31:38;;;;;;;4.18;3.75;;;16.10;55.60;;;;;;3911986;30;20711;-69
2022/04/22 04:34:00;;;;;;;4.97;3.90;;;16.10;55.60;;;;;;3912115;30;20124;-69
2022/04/22 04:36:22;;;;;;;3.83;3.13;;;16.10;55.60;;;;;;3912381;30;20110;-69
2022/04/22 04:38:44;;;;;;;3.83;3.30;;;16.10;55.60;;;;;;3912324;30;20153;-70
2022/04/22 04:41:10;;;;;;;4.60;3.13;;;16.10;55.50;;;;;;3912515;30;20049;-69
2022/04/22 04:43:32;;;;;;;5.05;3.88;;;16.00;55.50;;;;;;3912138;30;20068;-69
2022/04/22 04:45:54;;;;;;;5.53;3.65;;;16.00;55.40;;;;;;3912007;30;20068;-69
2022/04/22 04:48:18;;;;;;;5.80;3.60;;;16.00;55.80;;;;;;3911735;30;20128;-70
2022/04/22 04:50:41;;;;;;;3.72;3.03;;;16.00;55.90;;;;;;3911841;30;20055;-70
2022/04/22 04:53:03;;;;;;;4.72;3.70;;;16.00;56.00;;;;;;3911986;30;20068;-72
2022/04/22 04:55:25;;;;;;;5.20;3.47;;;16.00;55.80;;;;;;3912400;30;20052;-70
2022/04/22 04:57:48;;;;;;;4.07;3.33;;;16.00;55.70;;;;;;3909996;30;20057;-70
2022/04/22 05:00:12;;;;;;;7.10;3.35;;;16.00;55.60;;;;;;3906092;30;20420;-70
2022/04/22 05:02:34;;;;;;;3.65;3.22;;;16.00;55.60;;;;;;3911968;30;20067;-70
2022/04/22 05:04:57;;;;;;;3.83;3.15;;;15.90;55.60;;;;;;3912036;30;20068;-71
2022/04/22 05:07:20;;;;;;;4.05;3.55;;;15.90;55.60;;;;;;3911578;30;20080;-71
2022/04/22 05:09:42;;;;;;;4.75;2.88;;;15.90;55.60;;;;;;3911854;30;20056;-69
2022/04/22 05:12:05;;;;;;;5.38;3.05;;;15.90;55.70;;;;;;3912116;30;20059;-68
2022/04/22 05:14:28;;;;;;;5.00;3.22;;;15.90;55.60;;;;;;3912234;30;20067;-69
2022/04/22 05:16:50;;;;;;;8.63;3.45;;;15.90;55.70;;;;;;3912544;30;20390;-69
2022/04/22 05:19:12;;;;;;;7.38;2.97;;;15.90;55.60;;;;;;3912272;30;20106;-69
2022/04/22 05:21:34;;;;;;;5.28;3.13;;;15.90;55.60;;;;;;3907829;30;20561;-68
2022/04/22 05:23:57;;;;;;;4.65;3.20;;;16.00;55.60;;;;;;3912078;30;20061;-64
2022/04/22 05:26:20;;;;;;;6.90;2.60;;;16.00;55.60;;;;;;3911887;30;20474;-64
2022/04/22 05:28:43;;;;;;;5.38;2.83;;;16.00;55.20;;;;;;3912760;30;20065;-64
2022/04/22 05:33:47;;;;;;;6.43;2.88;;;16.00;55.20;;;;;;3911775;30;20062;-63
2022/04/22 05:36:09;;;;;;;6.60;2.80;;;16.00;55.40;;;;;;3912005;30;20122;-63
2022/04/22 05:38:31;;;;;;;4.45;2.42;;;16.00;55.30;;;;;;3911771;30;20064;-64
2022/04/22 05:40:53;;;;;;;2.95;2.42;;;16.10;55.30;;;;;;3911884;30;20063;-64
2022/04/22 05:43:15;;;;;;;4.15;2.40;;;16.10;55.30;;;;;;3897978;30;20049;-63
2022/04/22 05:45:38;;;;;;;4.32;2.47;;;16.10;55.10;;;;;;3913905;30;20079;-64
2022/04/22 05:48:01;;;;;;;3.15;2.13;;;16.20;54.90;;;;;;3914578;30;20116;-63
2022/04/22 05:50:24;;;;;;;4.10;2.35;;;16.20;55.10;;;;;;3914633;30;20483;-63
2022/04/22 05:52:46;;;;;;;4.65;2.13;;;16.20;54.90;;;;;;3913761;30;20067;-63
2022/04/22 05:55:10;;;;;;;2.90;2.60;;;16.30;54.80;;;;;;3922792;30;20141;-66
2022/04/22 05:57:33;;;;;;;2.83;2.63;;;16.30;54.70;;;;;;3913787;30;20150;-64
2022/04/22 05:59:55;;;;;;;5.97;2.50;;;16.30;54.50;;;;;;3904470;30;20057;-64
2022/04/22 06:02:17;;;;;;;3.50;2.80;;;16.30;54.50;;;;;;3914635;30;20422;-64
2022/04/22 06:04:41;;;;;;;2.78;2.47;;;16.30;54.30;;;;;;3913874;30;20143;-65
2022/04/22 06:07:03;;;;;;;4.03;2.53;;;16.40;54.10;;;;;;3913606;30;20618;-65
2022/04/22 06:12:06;;;;;;;2.58;2.38;;;16.30;55.20;;;;;;3914166;30;20052;-64
2022/04/22 06:14:28;;;;;;;2.63;2.10;;;16.30;54.90;;;;;;3912973;30;20106;-64
2022/04/22 06:16:50;;;;;;;3.35;2.13;;;16.30;54.80;;;;;;3913955;30;20064;-64
2022/04/22 06:19:12;;;;;;;4.22;2.33;;;16.40;54.50;;;;;;3913794;30;20622;-65
2022/04/22 06:21:36;;;;;;;2.58;2.38;;;16.40;54.50;;;;;;3898034;30;20049;-64
2022/04/22 06:23:58;;;;;;;6.10;2.53;;;16.40;54.30;;;;;;3910595;30;20067;-64
2022/04/22 06:26:20;;;;;;;2.75;2.30;;;16.40;54.10;;;;;;3901884;30;20064;-65
2022/04/22 06:28:42;;;;;;;2.35;2.10;;;16.40;54.00;;;;;;3912831;30;20060;-65
2022/04/22 06:31:05;;;;;;;4.32;1.95;;;16.50;54.00;;;;;;3915174;30;20075;-65
2022/04/22 06:33:28;;;;;;;7.15;2.47;;;16.50;53.90;;;;;;3928277;30;20059;-64
2022/04/22 06:35:50;;;;;;;5.50;2.97;;;16.50;53.80;;;;;;3910784;30;20481;-65
2022/04/22 06:38:16;;;;;;;2.97;2.33;;;16.50;53.70;;;;;;3913407;30;20053;-64
2022/04/22 06:45:59;;;;;;;4.30;2.63;;;16.50;53.20;;;;;;3899947;30;20049;-64
2022/04/22 06:48:25;;;;;;;2.22;2.05;;;16.50;53.30;;;;;;3907465;30;20136;-65
2022/04/22 06:51:06;;;;;;;2.60;2.30;;;16.50;53.50;;;;;;3901913;30;20060;-67
2022/04/22 06:53:30;;;;;;;2.30;2.17;;;16.50;53.70;;;;;;3913221;30;20052;-67
2022/04/22 06:55:53;;;;;;;4.20;2.80;;;16.50;53.70;;;;;;3912526;30;20079;-67
2022/04/22 06:58:17;;;;;;;5.03;1.95;;;16.60;53.70;;;;;;3913451;30;20462;-67
2022/04/22 07:00:40;;;;;;;3.70;2.45;;;16.60;53.80;;;;;;3900156;30;20106;-67
2022/04/22 07:03:02;;;;;;;4.10;2.47;;;16.70;53.70;;;;;;3913389;30;20524;-66
2022/04/22 07:05:25;;;;;;;5.40;2.60;;;16.70;53.80;;;;;;3913104;30;20110;-67
2022/04/22 07:07:48;;;;;;;3.90;2.53;;;16.70;53.70;;;;;;3912859;30;20614;-67
2022/04/22 07:10:12;;;;;;;4.32;2.40;;;16.80;53.50;;;;;;3912962;30;20176;-66
2022/04/22 07:12:34;;;;;;;2.40;2.20;;;16.80;53.60;;;;;;3913226;30;20068;-67
2022/04/22 07:15:03;;;;;;;3.17;2.58;;;16.80;53.40;;;;;;3911257;30;20622;-67
2022/04/22 07:17:25;;;;;;;3.85;2.55;;;16.90;53.60;;;;;;3912137;30;20413;-67
2022/04/22 07:19:48;;;;;;;3.72;2.58;;;16.90;53.10;;;;;;3912449;30;20076;-67
2022/04/22 07:22:11;;;;;;;6.35;2.60;;;16.90;53.10;;;;;;3909885;30;20112;-67
2022/04/22 07:24:34;;;;;;;2.53;2.33;;;17.00;53.10;;;;;;3920831;30;20136;-66
2022/04/22 07:26:59;;;;;;;3.25;2.00;;;17.00;53.10;;;;;;3912765;30;20056;-67
2022/04/22 07:29:23;;;;;;;3.38;2.40;;;17.00;53.10;;;;;;3912725;30;20127;-67
2022/04/22 07:31:47;;;;;;;3.40;2.35;;;17.00;53.50;;;;;;3912304;30;20056;-67
2022/04/22 07:34:09;;;;;;;3.35;2.33;;;17.00;52.80;;;;;;3914614;30;20064;-67
2022/04/22 07:36:32;;;;;;;2.75;2.50;;;17.00;52.80;;;;;;3909016;30;20141;-67
2022/04/22 07:38:54;;;;;;;3.47;2.60;;;17.00;52.60;;;;;;3912597;30;20563;-66
2022/04/22 07:41:23;;;;;;;4.90;2.30;;;17.00;52.80;;;;;;3911736;30;20506;-67
2022/04/22 07:49:09;;;;;;;3.45;2.65;;;17.00;53.30;;;;;;3911583;30;20184;-66
2022/04/22 07:51:31;;;;;;;3.80;2.50;;;17.00;53.50;;;;;;3912056;30;20060;-64
2022/04/22 07:53:55;;;;;;;4.88;2.72;;;17.00;53.50;;;;;;3912205;30;20474;-64
2022/04/22 07:56:17;;;;;;;2.80;2.17;;;17.10;54.20;;;;;;3911880;30;20134;-64
2022/04/22 07:58:39;;;;;;;4.97;2.30;;;17.10;53.10;;;;;;3912406;30;20122;-65
2022/04/22 08:01:02;;;;;;;3.38;2.72;;;17.10;52.70;;;;;;3912316;30;20180;-64
2022/04/22 08:03:24;;;;;;;5.53;2.50;;;17.10;52.70;;;;;;3912128;30;20103;-67
2022/04/22 08:05:46;;;;;;;5.95;2.50;;;17.20;53.70;;;;;;3911800;30;20473;-67
2022/04/22 08:08:09;;;;;;;4.93;2.72;;;17.20;52.70;;;;;;3911740;30;20128;-68
2022/04/22 08:10:31;;;;;;;3.83;2.80;;;17.20;53.00;;;;;;3912376;30;20051;-67
2022/04/22 08:12:53;;;;;;;3.60;2.28;;;17.20;52.80;;;;;;3898319;30;20142;-67
2022/04/22 08:15:15;;;;;;;3.40;2.38;;;17.30;52.90;;;;;;3890347;30;20099;-67
2022/04/22 08:17:39;;;;;;;2.85;2.65;;;17.30;52.80;;;;;;3898353;30;20521;-67
2022/04/22 08:20:01;;;;;;;3.80;2.67;;;17.40;52.80;;;;;;3912151;30;20417;-67
2022/04/22 08:22:23;;;;;;;4.65;2.70;;;17.40;52.80;;;;;;3912504;30;20056;-67
2022/04/22 08:24:45;;;;;;;4.40;2.50;;;17.40;52.50;;;;;;3911699;30;20078;-67
2022/04/22 08:27:08;;;;;;;3.63;2.90;;;17.50;52.60;;;;;;3904407;30;20474;-67
2022/04/22 08:29:30;;;;;;;3.05;2.55;;;17.40;52.60;;;;;;3912525;30;20715;-68
2022/04/22 08:31:53;;;;;;;9.05;2.75;;;17.50;52.70;;;;;;3912732;30;20053;-67
2022/04/22 08:34:16;;;;;;;2.78;2.38;;;17.50;52.30;;;;;;3915249;30;20118;-67
2022/04/22 08:36:39;;;;;;;3.88;2.80;;;17.50;52.20;;;;;;3915513;30;20069;-67
2022/04/22 08:39:00;;;;;;;3.63;2.55;;;17.50;52.80;;;;;;3914935;30;20091;-67
2022/04/22 08:41:23;;;;;;;3.05;2.45;;;17.50;52.40;;;;;;3897850;30;20490;-67
2022/04/22 08:43:45;;;;;;;4.07;2.97;;;17.60;52.50;;;;;;3897541;30;20502;-67
2022/04/22 08:49:58;;;;;;;3.50;2.60;;;17.60;52.60;;;;;;3905161;30;20162;-67
2022/04/22 08:51:33;;;;;;;3.83;2.65;;;17.60;52.20;;;;;;3911371;30;20604;-67
2022/04/22 08:53:57;;;;;;;4.22;2.67;;;17.60;53.00;;;;;;3911900;30;20084;-67
2022/04/22 08:56:20;;;;;;;4.55;2.67;;;17.60;52.30;;;;;;3912027;30;20072;-67
2022/04/22 08:58:43;;;;;;;2.97;2.60;;;17.60;52.40;;;;;;3912096;30;20056;-67
2022/04/22 09:01:07;;;;;;;2.05;1.92;;;17.70;52.30;;;;;;3911760;30;20448;-67
2022/04/22 09:03:30;;;;;;;4.43;2.50;;;17.70;52.10;;;;;;3907820;30;20056;-67
2022/04/22 09:05:51;;;;;;;2.63;2.38;;;17.70;52.10;;;;;;3912382;30;20064;-67
2022/04/22 09:08:15;;;;;;;5.20;2.40;;;17.80;51.50;;;;;;3911802;30;20064;-67
2022/04/22 09:10:38;;;;;;;7.20;2.70;;;17.80;51.60;;;;;;3912190;30;20118;-67
2022/04/22 09:13:02;;;;;;;2.85;2.50;;;17.80;51.90;;;;;;3911973;30;20056;-67
2022/04/22 09:15:26;;;;;;;5.35;2.22;;;17.80;51.80;;;;;;3912197;30;20482;-67
2022/04/22 09:17:49;;;;;;;3.45;2.63;;;17.80;51.50;;;;;;3911627;30;20069;-67
2022/04/22 09:20:15;;;;;;;4.03;2.17;;;17.90;51.40;;;;;;3901058;30;20053;-67
2022/04/22 09:22:37;;;;;;;3.38;2.45;;;17.90;51.60;;;;;;3914004;30;20091;-66
2022/04/22 09:25:04;;;;;;;3.80;2.45;;;17.90;51.50;;;;;;3914578;30;20521;-67
2022/04/22 09:27:33;;;;;;;2.30;2.10;;;17.90;51.30;;;;;;3914605;30;20064;-67
2022/04/22 09:29:56;;;;;;;6.15;2.75;;;17.90;51.40;;;;;;3914332;30;20056;-67
2022/04/22 09:32:26;;;;;;;3.83;2.40;;;18.00;51.20;;;;;;3914479;30;20057;-68
2022/04/22 09:34:47;;;;;;;2.83;2.38;;;18.00;51.00;;;;;;3914642;30;20052;-67
2022/04/22 09:42:47;;;;;;;4.00;2.47;;;18.10;50.90;;;;;;3914252;30;20060;-67
2022/04/22 09:45:09;;;;;;;2.72;2.28;;;18.10;50.70;;;;;;3914497;30;20052;-70
2022/04/22 09:47:33;;;;;;;3.40;3.03;;;18.20;51.00;;;;;;3914561;30;20061;-70
2022/04/22 09:49:55;;;;;;;5.53;2.80;;;18.20;50.80;;;;;;3913424;30;20138;-67
2022/04/22 09:52:25;;;;;;;5.97;3.03;;;18.20;50.40;;;;;;3914390;30;20076;-68
2022/04/22 09:54:57;;;;;;;4.53;2.65;;;18.20;50.00;;;;;;3900706;30;20053;-67
2022/04/22 09:57:30;;;;;;;4.80;2.85;;;18.20;49.80;;;;;;3914639;30;20565;-68
2022/04/22 09:59:52;;;;;;;3.45;2.90;;;18.30;50.00;;;;;;3914325;30;20056;-66
2022/04/22 10:02:21;;;;;;;3.63;2.67;;;18.30;50.40;;;;;;3913856;30;20142;-67
2022/04/22 10:04:43;;;;;;;4.45;3.40;;;18.30;50.60;;;;;;3886476;30;20100;-64
2022/04/22 10:07:07;;;;;;;3.72;2.72;;;18.30;50.40;;;;;;3886206;30;20057;-64
2022/04/22 10:09:30;;;;;;;2.65;2.50;;;18.40;50.20;;;;;;3899304;30;20133;-64
2022/04/22 10:11:54;;;;;;;5.20;3.25;;;18.40;50.40;;;;;;3899559;30;20059;-67
2022/04/22 10:14:29;;;;;;;3.88;3.15;;;18.40;50.70;;;;;;3899347;30;20513;-67
2022/04/22 10:16:53;;;;;;;3.22;3.00;;;18.40;50.60;;;;;;3906915;30;20083;-69
2022/04/22 10:19:16;;;;;;;3.80;2.97;;;18.50;50.30;;;;;;3913190;30;20053;-68
2022/04/22 10:21:40;;;;;;;6.07;3.10;;;18.50;50.50;;;;;;3913788;30;20052;-68
2022/04/22 10:24:03;;;;;;;4.18;3.20;;;18.50;51.10;;;;;;3913789;30;20520;-67
2022/04/22 10:26:27;;;;;;;3.78;3.30;;;18.50;50.70;;;;;;3913384;30;20059;-69
2022/04/22 10:28:50;;;;;;;6.20;3.63;;;18.50;50.70;;;;;;3913092;30;20060;-68
2022/04/22 10:31:13;;;;;;;5.45;3.28;;;18.50;50.60;;;;;;3912608;30;20102;-69
2022/04/22 10:33:41;;;;;;;4.78;3.10;;;18.60;50.90;;;;;;3913728;30;20056;-68
2022/04/22 10:36:06;;;;;;;6.50;3.38;;;18.60;50.70;;;;;;3913958;30;20059;-68
2022/04/22 10:38:30;;;;;;;3.60;3.30;;;18.50;50.50;;;;;;3925084;30;20121;-68
2022/04/22 10:40:52;;;;;;;5.55;3.40;;;18.60;50.60;;;;;;3913875;30;20059;-68
2022/04/22 10:43:15;;;;;;;4.13;3.20;;;18.60;50.90;;;;;;3913198;30;20057;-68
2022/04/22 10:48:24;;;;;;;4.25;2.92;;;18.60;50.90;;;;;;3913201;30;20560;-67
2022/04/22 10:50:57;;;;;;;5.20;3.25;;;18.60;50.80;;;;;;3913077;30;20139;-68
2022/04/22 10:53:24;;;;;;;3.67;2.70;;;18.60;51.20;;;;;;3913104;30;20143;-68
2022/04/22 10:55:48;;;;;;;4.78;3.35;;;18.60;50.30;;;;;;3899980;30;20060;-65
2022/04/22 10:58:30;;;;;;;4.97;3.50;;;18.60;50.40;;;;;;3913112;30;20053;-65
2022/04/22 11:00:55;;;;;;;3.80;3.25;;;18.60;51.10;;;;;;3913164;30;20059;-65
2022/04/22 11:03:19;;;;;;;5.32;4.03;;;18.60;51.40;;;;;;3913396;30;20060;-65
2022/04/22 11:05:49;;;;;;;4.75;3.40;;;18.60;51.10;;;;;;3913710;30;20056;-65
2022/04/22 11:08:24;;;;;;;4.75;3.60;;;18.60;51.10;;;;;;3913608;30;20861;-65
2022/04/22 11:11:08;;;;;;;6.70;3.72;;;18.60;51.50;;;;;;3912796;30;20487;-65
2022/04/22 11:13:32;;;;;;;5.85;3.88;;;18.60;50.90;;;;;;3913091;30;20052;-65
2022/04/22 11:15:57;;;;;;;3.65;3.35;;;18.70;51.10;;;;;;3913322;30;20095;-65
2022/04/22 11:18:21;;;;;;;4.20;3.58;;;18.70;51.20;;;;;;3912647;30;20421;-69
2022/04/22 11:20:48;;;;;;;5.28;3.90;;;18.70;51.20;;;;;;3912980;30;20417;-68
2022/04/22 11:23:12;;;;;;;4.55;4.00;;;18.70;51.40;;;;;;3912300;30;20059;-68
2022/04/22 11:25:36;;;;;;;5.05;3.30;;;18.70;51.10;;;;;;3898401;30;20049;-68
2022/04/22 11:27:59;;;;;;;5.50;3.05;;;18.70;50.60;;;;;;3898507;30;20072;-69
2022/04/22 11:30:22;;;;;;;6.28;4.30;;;18.80;50.40;;;;;;3898849;30;20049;-69
2022/04/22 11:32:47;;;;;;;7.00;4.05;;;18.70;51.10;;;;;;3901890;30;20056;-68
2022/04/22 11:35:17;;;;;;;5.47;3.88;;;18.70;51.30;;;;;;3902224;30;20469;-68
2022/04/22 11:37:41;;;;;;;4.27;3.67;;;18.80;51.40;;;;;;3911963;30;20049;-68
2022/04/22 11:40:05;;;;;;;5.28;3.38;;;18.80;51.10;;;;;;3911894;30;20360;-68
2022/04/22 11:42:28;;;;;;;5.68;4.20;;;18.80;50.70;;;;;;3909107;30;20427;-67
2022/04/22 11:45:04;;;;;;;6.20;4.57;;;18.80;50.60;;;;;;3912968;30;20060;-68
2022/04/22 11:47:26;;;;;;;5.07;4.20;;;18.80;51.20;;;;;;3912327;30;20478;-68
2022/04/22 11:49:48;;;;;;;6.22;4.18;;;18.80;51.30;;;;;;3912765;30;20059;-67
2022/04/22 11:52:10;;;;;;;5.03;4.03;;;18.80;50.90;;;;;;3912564;30;20049;-67
2022/04/22 11:54:36;;;;;;;4.20;3.45;;;18.80;50.70;;;;;;3899074;30;20064;-67
2022/04/22 11:56:59;;;;;;;5.35;3.95;;;18.80;50.80;;;;;;3912546;30;20052;-68
2022/04/22 11:59:22;;;;;;;6.63;4.05;;;18.80;51.00;;;;;;3899321;30;20418;-68
2022/04/22 12:09:52;;;;;;;3.97;3.58;;;18.90;50.90;;;;;;3910445;30;20130;-67
2022/04/22 12:12:14;;;;;;;3.70;3.33;;;18.90;51.00;;;;;;3909650;30;20064;-68
2022/04/22 12:14:36;;;;;;;10.15;5.00;;;18.90;50.80;;;;;;3912127;30;20063;-68
2022/04/22 12:17:00;;;;;;;7.35;4.43;;;19.00;51.10;;;;;;3911629;30;20521;-68
2022/04/22 12:19:23;;;;;;;5.50;4.18;;;19.00;51.40;;;;;;3912193;30;20052;-68
2022/04/22 12:21:46;;;;;;;6.60;4.40;;;18.90;51.20;;;;;;3912878;30;20053;-68
2022/04/22 12:24:08;;;;;;;5.90;4.43;;;18.90;50.80;;;;;;3898317;30;20142;-68
2022/04/22 12:26:39;;;;;;;5.53;4.22;;;19.00;51.00;;;;;;3897516;30;20057;-67
2022/04/22 12:29:09;;;;;;;6.18;4.25;;;19.00;51.00;;;;;;3884694;30;20053;-67
2022/04/22 12:31:32;;;;;;;7.18;3.92;;;19.00;51.20;;;;;;3897467;30;20059;-68
2022/04/22 12:34:02;;;;;;;8.05;4.22;;;19.00;51.80;;;;;;3897981;30;20509;-68
2022/04/22 12:36:24;;;;;;;6.13;4.25;;;19.00;52.00;;;;;;3898861;30;20116;-68
2022/04/22 12:38:46;;;;;;;6.15;4.68;;;19.10;52.10;;;;;;3911592;30;20675;-68
2022/04/22 12:41:19;;;;;;;5.20;4.55;;;19.10;51.60;;;;;;3912581;30;20057;-68
2022/04/22 12:43:47;;;;;;;7.53;5.10;;;19.10;51.70;;;;;;3912202;30;20064;-68
2022/04/22 12:52:14;;;;;;;5.90;4.47;;;19.20;51.60;;;;;;3911391;30;20464;-68
2022/04/22 12:54:39;;;;;;;5.00;4.60;;;19.20;51.80;;;;;;3910730;30;20064;-67
2022/04/22 12:57:00;;;;;;;4.90;4.45;;;19.20;51.80;;;;;;3914986;30;20057;-67
2022/04/22 12:59:24;;;;;;;5.82;4.40;;;19.20;52.00;;;;;;3912974;30;20119;-68
2022/04/22 13:01:49;;;;;;;5.88;5.18;;;19.20;52.20;;;;;;3901803;30;20132;-67
2022/04/22 13:04:21;;;;;;;5.18;4.68;;;19.30;52.20;;;;;;3900392;30;20053;-68
2022/04/22 13:06:44;;;;;;;8.57;4.53;;;19.20;52.20;;;;;;3900536;30;20156;-68
2022/04/22 13:09:07;;;;;;;7.22;5.25;;;19.30;52.30;;;;;;3906077;30;20082;-68
2022/04/22 13:11:29;;;;;;;7.65;5.07;;;19.30;52.60;;;;;;3915104;30;20125;-67
2022/04/22 13:13:51;;;;;;;7.05;4.93;;;19.30;52.30;;;;;;3914489;30;20053;-67
2022/04/22 13:16:14;;;;;;;7.15;4.68;;;19.30;52.10;;;;;;3901452;30;20569;-68
2022/04/22 13:18:36;;;;;;;7.68;5.03;;;19.40;52.70;;;;;;3914986;30;20063;-68
2022/04/22 13:21:00;;;;;;;6.13;4.80;;;19.30;51.90;;;;;;3914442;30;20151;-68
2022/04/22 13:23:21;;;;;;;6.18;4.70;;;19.40;52.00;;;;;;3914746;30;20052;-68
2022/04/22 13:25:43;;;;;;;7.05;5.05;;;19.30;51.80;;;;;;3914514;30;20061;-67
2022/04/22 13:28:06;;;;;;;7.53;5.45;;;19.30;51.90;;;;;;3914656;30;20052;-68
2022/04/22 13:30:32;;;;;;;6.53;5.35;;;19.30;51.70;;;;;;3900070;30;20103;-68
2022/04/22 13:32:56;;;;;;;5.47;4.38;;;19.30;52.30;;;;;;3875220;30;20541;-68
2022/04/22 13:35:20;;;;;;;9.02;5.35;;;19.30;51.40;;;;;;3900243;30;20056;-67
2022/04/22 13:37:42;;;;;;;7.43;4.88;;;19.30;51.80;;;;;;3900186;30;20472;-68
2022/04/22 13:40:05;;;;;;;6.32;5.72;;;19.40;52.10;;;;;;3912893;30;20065;-68